Terminal Aerodrome Forecast
Issued by NWS

Home | Current Version | Previous Version | Graphics & Text | Print | Product List | Glossary On
Versions: 1 2 3 4 5 6 7 8 9 10 11 12 13 14 15 16
000
FTUS43 KMPX 241721
TAFRWF
TAF
KRWF 241721Z 2418/2518 16018G26KT 6SM BR OVC008
     FM242200 14018KT 5SM -RASN BR OVC008
     FM250000 14014KT 5SM -RASN BR OVC009
      TEMPO 2500/2502 2SM -SN
     FM250300 15010KT 6SM BR OVC008
     FM250600 20010KT P6SM BKN012
     FM250900 27014G20KT P6SM SCT015
     FM251500 30020G30KT P6SM SCT015 BKN025=

USA.gov is the U.S. government's official web portal to all federal, state and local government web resources and services.